RKTN/TAE METAR and TAF weather

Enter ICAO airport designator
Station Type Date Time Source
RKTN METAR 2019/08/25 14:00 UTC NOAA

RKTN 251400Z 35002KT CAVOK 23/19 Q1013


Station Type Date Time Source
RKTN Decoded METAR 2019/08/25 14:00 UTC NOAA

Station name not available
Aug 25, 2019 - 10:00 AM EDT / 2019.08.25 1400 UTC
Wind: from the N (350 degrees) at 2 MPH (2 KT):0
Visibility: greater than 7 mile(s):0
Temperature: 73 F (23 C)
Dew Point: 66 F (19 C)
Relative Humidity: 78%
Pressure (altimeter): 29.91 in. Hg (1013 hPa)
ob: RKTN 251400Z 35002KT CAVOK 23/19 Q1013
cycle: 14

Station Type Date Time Source
RKTN TAF 2019/08/25 12:09 UTC NOAA

TAF RKTN 251100Z 2512/2618 03006KT 9999 SCT040 SCT200 TN21/2521Z TX31/2606Z

Example: see airport list